Time;durP1;ratioP1;P1;durP2;ratioP2;P2;SDS_P1;SDS_P2;PMS_P1;PMS_P2;Temp;Humidity;BMP_temperature;BMP_pressure;BME280_temperature;BME280_humidity;BME280_pressure;Samples;Min_cycle;Max_cycle;Signal;HPM_P1;HPM_P2
2021/11/28 00:04:22;;;;;;;9.55;3.25;;;4.20;94.00;;;;;;10138408;28;20036;-62
2021/11/28 00:14:12;;;;;;;5.68;3.33;;;4.30;94.10;;;;;;10132070;28;20059;-62
2021/11/28 00:19:05;;;;;;;6.95;2.95;;;4.40;94.00;;;;;;10139295;28;20020;-62
2021/11/28 00:23:55;;;;;;;7.93;3.00;;;4.40;94.00;;;;;;10125634;28;20039;-62
2021/11/28 00:28:46;;;;;;;5.15;2.60;;;4.30;93.90;;;;;;10128425;28;20036;-63
2021/11/28 00:33:37;;;;;;;7.35;2.92;;;4.40;93.90;;;;;;10142531;28;20043;-61
2021/11/28 00:38:28;;;;;;;7.38;3.78;;;4.30;94.00;;;;;;10135933;28;20557;-63
2021/11/28 00:43:19;;;;;;;3.90;2.50;;;4.30;93.90;;;;;;10146987;28;20051;-62
2021/11/28 00:48:10;;;;;;;5.05;2.50;;;4.30;93.90;;;;;;10139874;28;20102;-62
2021/11/28 00:53:00;;;;;;;5.68;2.47;;;4.20;94.10;;;;;;10139306;28;20090;-62
2021/11/28 00:57:51;;;;;;;3.70;2.55;;;4.20;94.00;;;;;;10139213;28;20421;-63
2021/11/28 01:02:42;;;;;;;5.35;2.47;;;4.20;93.90;;;;;;10145397;28;20040;-63
2021/11/28 01:07:33;;;;;;;5.40;2.85;;;4.20;93.90;;;;;;10141412;28;20146;-61
2021/11/28 01:12:24;;;;;;;5.95;2.67;;;4.20;93.90;;;;;;10138728;28;20489;-62
2021/11/28 01:17:15;;;;;;;4.97;2.55;;;4.20;93.90;;;;;;10152343;28;20662;-62
2021/11/28 01:22:09;;;;;;;2.97;2.60;;;4.20;93.80;;;;;;10138754;28;20108;-62
2021/11/28 01:27:02;;;;;;;9.00;3.55;;;4.20;93.90;;;;;;10132304;28;20039;-62
2021/11/28 01:31:53;;;;;;;7.05;3.58;;;4.20;93.80;;;;;;10146066;28;20450;-62
2021/11/28 01:36:44;;;;;;;6.13;3.10;;;4.20;93.80;;;;;;10135944;28;20068;-63
2021/11/28 01:41:36;;;;;;;7.47;4.25;;;4.10;93.80;;;;;;10134997;28;20036;-62
2021/11/28 01:46:28;;;;;;;7.47;3.45;;;4.10;93.90;;;;;;10139162;28;20086;-62
2021/11/28 01:51:19;;;;;;;6.60;3.30;;;4.10;93.80;;;;;;10136624;28;20043;-61
2021/11/28 01:56:10;;;;;;;6.55;3.65;;;4.20;94.10;;;;;;10136413;28;20049;-62
2021/11/28 02:01:08;;;;;;;6.13;3.25;;;4.20;93.80;;;;;;10136934;28;20467;-62
2021/11/28 02:05:59;;;;;;;5.38;3.58;;;4.20;93.70;;;;;;10134287;28;20059;-63
2021/11/28 02:10:50;;;;;;;6.43;3.50;;;4.10;93.70;;;;;;10138502;28;20123;-62
2021/11/28 02:15:41;;;;;;;5.70;2.95;;;4.10;93.70;;;;;;10137935;28;20454;-62
2021/11/28 02:20:32;;;;;;;9.55;3.50;;;4.10;93.80;;;;;;10135764;28;20048;-62
2021/11/28 02:25:25;;;;;;;5.78;3.30;;;4.10;93.80;;;;;;10133731;28;20024;-61
2021/11/28 02:30:19;;;;;;;6.15;2.47;;;4.10;93.70;;;;;;10138390;28;20028;-62
2021/11/28 02:35:13;;;;;;;5.97;2.85;;;4.10;93.80;;;;;;10130663;28;20067;-62
2021/11/28 02:40:05;;;;;;;5.53;3.50;;;4.00;93.80;;;;;;10133142;28;20013;-63
2021/11/28 02:44:55;;;;;;;6.18;3.25;;;3.80;93.90;;;;;;10134798;28;20058;-61
2021/11/28 02:49:46;;;;;;;6.50;3.15;;;3.70;94.00;;;;;;10133810;28;20024;-62
2021/11/28 02:54:37;;;;;;;6.78;3.38;;;3.80;93.90;;;;;;10121602;28;20040;-62
2021/11/28 02:59:28;;;;;;;5.20;3.40;;;3.90;93.70;;;;;;10133535;28;20107;-63
2021/11/28 03:04:19;;;;;;;6.38;3.00;;;4.00;93.80;;;;;;10131936;28;20395;-62
2021/11/28 03:09:10;;;;;;;5.18;3.25;;;4.10;93.70;;;;;;10138902;28;20045;-62
2021/11/28 03:14:00;;;;;;;7.32;3.35;;;4.10;93.70;;;;;;10131566;28;20082;-63
2021/11/28 03:18:52;;;;;;;6.32;3.17;;;4.10;93.70;;;;;;10130723;28;20029;-64
2021/11/28 03:23:45;;;;;;;7.95;2.67;;;4.10;93.70;;;;;;10141297;28;20110;-62
2021/11/28 03:28:40;;;;;;;5.85;2.83;;;4.10;93.70;;;;;;10135205;28;20475;-62
2021/11/28 03:33:31;;;;;;;7.30;2.92;;;4.10;93.70;;;;;;10123824;28;20036;-62
2021/11/28 03:38:22;;;;;;;5.10;2.92;;;4.20;93.60;;;;;;10132379;28;20440;-63
2021/11/28 03:43:13;;;;;;;5.10;2.35;;;4.10;93.70;;;;;;10135112;28;20115;-62
2021/11/28 03:48:04;;;;;;;5.28;2.53;;;4.10;93.80;;;;;;10132993;28;20462;-63
2021/11/28 03:52:55;;;;;;;6.57;2.78;;;4.10;93.70;;;;;;10138606;28;20012;-64
2021/11/28 03:57:46;;;;;;;5.47;3.25;;;4.10;93.70;;;;;;10134099;28;20044;-62
2021/11/28 04:02:37;;;;;;;5.25;3.20;;;4.10;94.00;;;;;;10132436;28;20021;-62
2021/11/28 04:07:28;;;;;;;3.70;2.03;;;4.20;93.70;;;;;;10131862;28;20499;-62
2021/11/28 04:12:18;;;;;;;6.22;2.42;;;4.20;94.00;;;;;;10142820;28;20032;-62
2021/11/28 04:17:10;;;;;;;5.68;3.20;;;4.20;93.70;;;;;;10134605;28;20387;-62
2021/11/28 04:22:01;;;;;;;3.78;1.95;;;4.00;93.80;;;;;;10144766;28;20070;-61
2021/11/28 04:26:52;;;;;;;5.95;3.03;;;4.10;93.90;;;;;;10140523;28;20028;-62
2021/11/28 04:31:43;;;;;;;3.63;2.13;;;4.20;93.70;;;;;;10141991;28;20020;-62
2021/11/28 04:36:33;;;;;;;4.90;2.58;;;4.20;93.70;;;;;;10145950;28;20398;-64
2021/11/28 04:41:24;;;;;;;2.60;2.10;;;4.10;93.80;;;;;;10139450;28;20034;-62
2021/11/28 04:46:15;;;;;;;4.13;2.25;;;4.10;93.80;;;;;;10136727;28;20526;-62
2021/11/28 04:51:06;;;;;;;4.05;2.20;;;4.10;93.80;;;;;;10146686;28;20399;-61
2021/11/28 04:55:56;;;;;;;3.38;2.17;;;4.00;93.90;;;;;;10134836;28;20037;-62
2021/11/28 05:00:47;;;;;;;5.55;2.60;;;4.10;93.90;;;;;;10134469;28;20258;-62
2021/11/28 05:05:38;;;;;;;6.43;3.30;;;4.10;93.80;;;;;;10142584;28;20032;-62
2021/11/28 05:10:28;;;;;;;5.68;2.38;;;4.10;93.90;;;;;;10138356;28;20020;-63
2021/11/28 05:15:20;;;;;;;3.42;2.20;;;4.00;93.90;;;;;;10133803;28;20053;-62
2021/11/28 05:20:11;;;;;;;4.88;2.60;;;4.00;93.90;;;;;;10143457;28;20031;-61
2021/11/28 05:25:04;;;;;;;4.90;2.63;;;3.90;93.90;;;;;;10133676;28;20356;-61
2021/11/28 05:29:54;;;;;;;4.30;1.85;;;4.00;93.90;;;;;;10138409;28;20020;-61
2021/11/28 05:34:45;;;;;;;6.65;2.17;;;4.00;93.90;;;;;;10140446;28;20240;-62
2021/11/28 05:39:36;;;;;;;3.80;2.40;;;4.10;93.90;;;;;;10135738;28;20039;-63
2021/11/28 05:44:27;;;;;;;4.47;1.83;;;4.10;93.90;;;;;;10126046;28;20085;-63
2021/11/28 05:49:18;;;;;;;2.67;1.65;;;4.00;94.00;;;;;;10127917;28;20111;-62
2021/11/28 05:54:09;;;;;;;3.53;2.17;;;4.00;94.00;;;;;;10137975;28;20081;-63
2021/11/28 05:58:59;;;;;;;5.50;2.08;;;4.00;94.10;;;;;;10135989;28;20016;-62
2021/11/28 06:03:50;;;;;;;4.97;3.17;;;4.00;94.00;;;;;;10138092;28;20032;-62
2021/11/28 06:08:41;;;;;;;3.22;1.65;;;4.00;94.00;;;;;;10133237;28;20417;-62
2021/11/28 06:13:32;;;;;;;2.88;1.92;;;4.00;93.90;;;;;;10128200;28;20521;-62
2021/11/28 06:18:23;;;;;;;2.40;1.60;;;4.00;93.80;;;;;;10130413;28;20033;-62
2021/11/28 06:23:14;;;;;;;4.43;2.85;;;3.90;93.80;;;;;;10135529;28;20025;-63
2021/11/28 06:28:05;;;;;;;2.90;1.92;;;3.80;93.80;;;;;;10133152;28;20063;-62
2021/11/28 06:32:55;;;;;;;5.55;1.95;;;3.50;94.00;;;;;;10151634;28;20566;-61
2021/11/28 06:37:46;;;;;;;3.15;2.63;;;3.40;94.00;;;;;;10135516;28;20099;-62
2021/11/28 06:42:37;;;;;;;4.15;2.03;;;3.50;94.10;;;;;;10128822;28;20072;-62
2021/11/28 06:47:27;;;;;;;3.88;1.98;;;3.60;94.30;;;;;;10143543;28;20592;-62
2021/11/28 06:52:18;;;;;;;3.70;2.60;;;3.70;94.20;;;;;;10133848;28;20020;-62
2021/11/28 06:57:09;;;;;;;4.72;2.25;;;3.80;94.10;;;;;;10130983;28;20118;-63
2021/11/28 07:02:00;;;;;;;2.58;1.73;;;3.70;94.00;;;;;;10143579;28;20029;-63
2021/11/28 07:06:50;;;;;;;4.03;2.22;;;3.70;94.20;;;;;;10129308;28;20020;-62
2021/11/28 07:11:41;;;;;;;5.13;2.00;;;3.70;94.20;;;;;;10133575;28;20028;-62
2021/11/28 07:16:32;;;;;;;3.13;1.77;;;3.90;94.10;;;;;;10139389;28;20041;-62
2021/11/28 07:21:23;;;;;;;5.65;3.08;;;3.90;94.00;;;;;;10134562;28;20033;-62
2021/11/28 07:26:14;;;;;;;4.93;3.53;;;3.90;94.20;;;;;;10131041;28;20024;-62
2021/11/28 07:31:06;;;;;;;5.93;2.58;;;4.00;94.20;;;;;;10132041;28;20036;-62
2021/11/28 07:35:56;;;;;;;2.25;1.60;;;4.10;94.20;;;;;;10131359;28;20505;-63
2021/11/28 07:40:47;;;;;;;4.75;1.90;;;4.00;94.30;;;;;;10125632;28;20028;-62
2021/11/28 07:45:38;;;;;;;3.53;2.05;;;4.10;94.30;;;;;;10135529;28;20040;-63
2021/11/28 07:50:29;;;;;;;5.68;2.33;;;4.20;94.30;;;;;;10131639;28;20029;-62
2021/11/28 07:55:19;;;;;;;1.38;1.25;;;4.30;94.30;;;;;;10126156;28;20044;-62
2021/11/28 08:00:11;;;;;;;3.63;2.00;;;4.20;94.40;;;;;;10133208;28;20419;-62
2021/11/28 08:05:02;;;;;;;4.25;2.15;;;4.20;94.50;;;;;;10125817;28;20086;-63
2021/11/28 08:09:53;;;;;;;3.83;2.13;;;4.30;94.50;;;;;;10135523;28;20088;-62
2021/11/28 08:14:44;;;;;;;3.80;2.33;;;4.30;94.50;;;;;;10136137;28;20519;-64
2021/11/28 08:19:35;;;;;;;1.75;1.60;;;4.50;94.40;;;;;;10131213;28;20085;-63
2021/11/28 08:24:26;;;;;;;3.60;2.78;;;4.60;94.30;;;;;;10130001;28;20028;-63
2021/11/28 08:29:17;;;;;;;3.63;1.60;;;4.60;94.40;;;;;;10136841;28;20025;-62
2021/11/28 08:34:08;;;;;;;3.40;1.65;;;4.70;94.40;;;;;;10135825;28;20037;-62
2021/11/28 08:38:58;;;;;;;3.70;1.52;;;4.80;94.40;;;;;;10124553;28;20024;-62
2021/11/28 08:43:51;;;;;;;2.55;1.80;;;4.80;94.50;;;;;;10138603;28;20040;-63
2021/11/28 08:48:42;;;;;;;2.72;1.92;;;4.80;94.50;;;;;;10126599;28;20037;-62
2021/11/28 08:53:33;;;;;;;3.95;1.90;;;4.90;94.60;;;;;;10142238;28;20547;-64
2021/11/28 08:58:24;;;;;;;2.88;1.52;;;4.80;94.40;;;;;;10141739;28;20127;-63
2021/11/28 09:03:14;;;;;;;3.25;2.13;;;4.80;94.60;;;;;;10139598;28;20304;-63
2021/11/28 09:08:05;;;;;;;2.00;1.50;;;4.90;94.60;;;;;;10141395;28;20040;-63
2021/11/28 09:12:57;;;;;;;1.88;1.50;;;5.10;94.50;;;;;;10139163;28;20091;-64
2021/11/28 09:18:01;;;;;;;2.70;1.98;;;5.10;94.30;;;;;;10133413;28;20033;-63
2021/11/28 09:27:46;;;;;;;2.70;1.70;;;5.10;94.40;;;;;;10134649;28;20039;-63
2021/11/28 09:32:37;;;;;;;2.55;1.60;;;5.10;94.40;;;;;;10137253;28;20046;-62
2021/11/28 09:37:27;;;;;;;4.05;1.48;;;4.90;94.50;;;;;;10140765;28;20039;-63
2021/11/28 09:42:27;;;;;;;4.72;1.95;;;4.80;94.60;;;;;;10133923;28;20032;-65
2021/11/28 09:47:19;;;;;;;2.70;1.70;;;4.90;94.50;;;;;;10129689;28;20288;-65
2021/11/28 09:52:16;;;;;;;3.63;2.25;;;5.00;94.40;;;;;;10132899;28;20036;-62
2021/11/28 09:57:15;;;;;;;4.20;2.10;;;5.10;94.30;;;;;;10138538;28;20037;-64
2021/11/28 10:02:06;;;;;;;2.28;1.80;;;5.20;94.20;;;;;;10140411;28;20055;-63
2021/11/28 10:06:58;;;;;;;2.67;1.88;;;5.20;94.20;;;;;;10133788;28;20469;-63
2021/11/28 10:12:10;;;;;;;3.58;2.30;;;5.30;94.20;;;;;;10129933;28;20498;-63
2021/11/28 10:17:00;;;;;;;5.15;2.20;;;5.40;94.20;;;;;;10140739;28;20220;-63
2021/11/28 10:21:51;;;;;;;4.63;1.80;;;5.20;94.30;;;;;;10137476;28;20028;-64
2021/11/28 10:27:06;;;;;;;4.72;2.15;;;5.20;94.40;;;;;;10135256;28;20055;-64
2021/11/28 10:32:00;;;;;;;5.53;2.55;;;5.40;94.30;;;;;;10142658;28;20028;-63
2021/11/28 10:37:10;;;;;;;3.80;2.03;;;5.50;94.00;;;;;;10135830;28;20090;-62
2021/11/28 10:42:01;;;;;;;2.80;1.67;;;5.20;94.50;;;;;;10133776;28;20016;-64
2021/11/28 10:46:59;;;;;;;4.75;2.15;;;5.10;94.40;;;;;;10139611;28;20485;-62
2021/11/28 10:51:51;;;;;;;3.58;2.10;;;5.20;94.40;;;;;;10134973;28;20502;-64
2021/11/28 10:56:42;;;;;;;2.97;1.77;;;5.30;94.30;;;;;;10129786;28;20541;-64
2021/11/28 11:01:34;;;;;;;6.07;2.28;;;5.30;94.30;;;;;;10139832;28;20154;-62
2021/11/28 11:06:25;;;;;;;2.55;2.05;;;5.20;94.30;;;;;;10135242;28;20113;-64
2021/11/28 11:11:17;;;;;;;5.28;2.42;;;5.40;94.30;;;;;;10130144;28;20016;-62
2021/11/28 11:16:09;;;;;;;5.00;2.20;;;5.60;94.10;;;;;;10130935;28;20507;-63
2021/11/28 11:21:04;;;;;;;2.97;1.98;;;5.60;94.20;;;;;;10129622;28;20228;-63
2021/11/28 11:26:11;;;;;;;5.15;2.03;;;5.60;94.20;;;;;;10136744;28;20126;-62
2021/11/28 11:31:03;;;;;;;4.25;1.85;;;5.70;94.10;;;;;;10125242;28;20025;-63
2021/11/28 11:35:55;;;;;;;2.58;1.60;;;5.70;94.10;;;;;;10132751;28;20487;-62
2021/11/28 11:40:46;;;;;;;3.00;1.88;;;5.80;94.00;;;;;;10125609;28;20021;-62
2021/11/28 11:45:37;;;;;;;2.38;1.70;;;5.90;94.00;;;;;;10132555;28;20282;-61
2021/11/28 11:50:31;;;;;;;3.05;1.95;;;5.90;94.10;;;;;;10130497;28;20016;-62
2021/11/28 11:55:29;;;;;;;2.90;2.22;;;5.80;94.00;;;;;;10130163;28;20569;-62
2021/11/28 12:00:42;;;;;;;2.47;1.60;;;5.80;94.20;;;;;;10134933;28;20024;-61
2021/11/28 12:05:35;;;;;;;2.72;2.33;;;5.90;94.00;;;;;;10127596;28;20025;-63
2021/11/28 12:10:27;;;;;;;4.82;1.88;;;5.70;94.10;;;;;;10137979;28;20077;-63
2021/11/28 12:15:21;;;;;;;2.65;1.92;;;5.70;94.10;;;;;;10130793;28;20102;-62
2021/11/28 12:20:14;;;;;;;2.17;1.30;;;5.70;94.10;;;;;;10135110;28;20032;-64
2021/11/28 12:25:37;;;;;;;2.67;1.20;;;5.50;94.20;;;;;;10135869;28;20057;-64
2021/11/28 12:30:34;;;;;;;2.97;1.70;;;5.40;94.00;;;;;;10132332;28;20043;-63
2021/11/28 12:35:38;;;;;;;0.90;0.90;;;5.40;94.10;;;;;;10131907;28;20036;-63
2021/11/28 12:40:33;;;;;;;1.52;1.00;;;5.40;94.00;;;;;;10129750;28;20055;-63
2021/11/28 12:45:32;;;;;;;1.27;1.02;;;5.30;94.00;;;;;;10141660;28;20035;-65
2021/11/28 12:50:24;;;;;;;3.30;1.13;;;5.30;94.00;;;;;;10140091;28;20025;-62
2021/11/28 12:55:21;;;;;;;2.33;1.75;;;5.40;93.90;;;;;;10136954;28;20394;-65
2021/11/28 13:00:12;;;;;;;2.42;1.00;;;5.50;93.80;;;;;;10138651;28;20165;-64
2021/11/28 13:05:02;;;;;;;2.10;1.33;;;5.60;93.70;;;;;;10140205;28;20111;-64
2021/11/28 13:09:56;;;;;;;5.20;2.05;;;5.50;93.70;;;;;;10139681;28;20032;-63
2021/11/28 13:14:47;;;;;;;5.38;2.42;;;5.60;93.80;;;;;;10145349;28;20097;-63
2021/11/28 13:19:38;;;;;;;3.10;1.88;;;5.40;93.80;;;;;;10139074;28;20485;-63
2021/11/28 13:24:29;;;;;;;3.97;1.95;;;5.50;93.80;;;;;;10135091;28;20043;-62
2021/11/28 13:29:20;;;;;;;3.95;1.63;;;5.30;94.00;;;;;;10145571;28;20605;-64
2021/11/28 13:34:11;;;;;;;2.17;1.75;;;5.20;94.00;;;;;;10134108;28;20370;-63
2021/11/28 13:39:04;;;;;;;2.35;1.52;;;5.20;93.90;;;;;;10133470;28;20491;-62
2021/11/28 13:43:57;;;;;;;2.92;2.15;;;5.20;93.90;;;;;;10138603;28;20625;-63
2021/11/28 13:48:52;;;;;;;4.57;1.67;;;5.20;93.80;;;;;;10138046;28;20146;-63
2021/11/28 13:53:56;;;;;;;3.78;2.20;;;5.00;94.00;;;;;;10129133;28;20024;-63
2021/11/28 13:59:07;;;;;;;2.25;1.73;;;5.10;94.00;;;;;;10143956;28;20456;-63
2021/11/28 14:03:57;;;;;;;3.00;2.03;;;5.10;93.90;;;;;;10126119;28;20037;-62
2021/11/28 14:08:48;;;;;;;4.32;2.88;;;5.10;93.90;;;;;;10131361;28;20457;-61
2021/11/28 14:13:49;;;;;;;4.22;2.45;;;4.90;94.00;;;;;;10139863;28;20064;-62
2021/11/28 14:18:42;;;;;;;3.45;1.98;;;4.90;94.10;;;;;;10134969;28;20040;-61
2021/11/28 14:23:33;;;;;;;3.08;1.92;;;4.80;94.10;;;;;;10139786;28;20027;-62
2021/11/28 14:28:32;;;;;;;2.63;2.10;;;4.70;94.10;;;;;;10137483;28;20032;-62
2021/11/28 14:33:33;;;;;;;5.28;3.05;;;4.70;94.10;;;;;;10126248;28;20028;-62
2021/11/28 14:38:31;;;;;;;6.20;2.20;;;4.70;94.10;;;;;;10137345;28;20078;-62
2021/11/28 14:43:24;;;;;;;4.55;2.72;;;4.80;94.20;;;;;;10135783;28;20020;-64
2021/11/28 14:48:20;;;;;;;4.80;2.30;;;5.00;94.00;;;;;;10131529;28;20050;-64
2021/11/28 14:53:11;;;;;;;3.28;2.40;;;5.00;93.90;;;;;;10124306;28;20051;-64
2021/11/28 14:58:02;;;;;;;5.75;2.72;;;4.90;94.00;;;;;;10124316;28;20044;-63
2021/11/28 15:03:05;;;;;;;4.03;2.22;;;4.80;94.00;;;;;;10137220;28;20021;-65
2021/11/28 15:08:11;;;;;;;3.88;2.95;;;4.70;94.10;;;;;;10136875;28;20043;-63
2021/11/28 15:13:06;;;;;;;7.65;2.53;;;4.70;94.10;;;;;;10141292;28;20079;-63
2021/11/28 15:17:56;;;;;;;3.85;2.05;;;4.70;94.10;;;;;;10134790;28;20040;-62
2021/11/28 15:22:53;;;;;;;3.08;2.00;;;4.70;94.20;;;;;;10134321;28;20020;-62
2021/11/28 15:27:45;;;;;;;5.15;2.00;;;4.70;94.50;;;;;;10131933;28;20532;-62
2021/11/28 15:32:37;;;;;;;1.85;1.70;;;4.60;94.30;;;;;;10140204;28;20104;-65
2021/11/28 15:37:27;;;;;;;4.88;2.35;;;4.50;94.30;;;;;;10123893;28;20279;-65
2021/11/28 15:42:19;;;;;;;2.42;2.22;;;4.60;94.20;;;;;;10131156;28;20173;-64
2021/11/28 15:47:09;;;;;;;2.08;1.60;;;4.70;94.10;;;;;;10132977;28;20032;-63
2021/11/28 15:52:00;;;;;;;3.28;2.10;;;4.70;94.10;;;;;;10132310;28;20021;-63
2021/11/28 15:56:51;;;;;;;3.40;1.55;;;4.60;94.20;;;;;;10126607;28;20502;-63
2021/11/28 16:01:41;;;;;;;3.47;2.15;;;4.60;94.20;;;;;;10146172;28;20386;-64
2021/11/28 16:06:32;;;;;;;8.52;2.13;;;4.40;94.30;;;;;;10158438;28;20076;-62
2021/11/28 16:11:25;;;;;;;4.45;2.15;;;4.40;94.30;;;;;;10139266;28;20029;-64
2021/11/28 16:16:16;;;;;;;2.60;1.55;;;4.30;94.40;;;;;;10148876;28;20048;-65
2021/11/28 16:21:08;;;;;;;3.42;2.00;;;4.30;94.50;;;;;;10138539;28;20024;-63
2021/11/28 16:25:58;;;;;;;5.00;3.05;;;4.40;94.40;;;;;;10135096;28;20024;-62
2021/11/28 16:30:50;;;;;;;4.13;2.47;;;4.40;94.30;;;;;;10149992;28;20534;-63
2021/11/28 16:35:41;;;;;;;2.70;1.60;;;4.30;94.30;;;;;;10141597;28;20515;-64
2021/11/28 16:40:32;;;;;;;5.13;2.50;;;4.30;94.50;;;;;;10136300;28;20399;-63
2021/11/28 16:45:23;;;;;;;4.13;2.30;;;4.20;94.50;;;;;;10141183;28;20532;-63
2021/11/28 16:50:14;;;;;;;4.25;2.17;;;4.20;94.50;;;;;;10140712;28;20020;-62
2021/11/28 16:55:05;;;;;;;3.20;2.00;;;4.20;94.50;;;;;;10138888;28;20545;-63
2021/11/28 16:59:56;;;;;;;3.13;1.95;;;4.20;94.60;;;;;;10139312;28;20048;-63
2021/11/28 17:04:47;;;;;;;5.50;2.40;;;4.30;94.50;;;;;;10138311;28;20440;-64
2021/11/28 17:09:38;;;;;;;2.67;1.45;;;4.30;94.50;;;;;;10147803;28;20608;-63
2021/11/28 17:14:28;;;;;;;3.50;1.55;;;4.20;94.50;;;;;;10123588;28;20552;-63
2021/11/28 17:19:19;;;;;;;4.20;1.65;;;4.20;94.70;;;;;;10138184;28;20510;-63
2021/11/28 17:24:10;;;;;;;5.22;2.42;;;4.30;94.70;;;;;;10135414;28;20417;-63
2021/11/28 17:29:01;;;;;;;6.85;3.65;;;4.20;94.60;;;;;;10142517;28;20420;-63
2021/11/28 17:33:52;;;;;;;4.95;3.03;;;4.20;94.60;;;;;;10145568;28;20116;-62
2021/11/28 17:38:42;;;;;;;5.93;3.00;;;4.20;94.70;;;;;;10142072;28;20118;-64
2021/11/28 17:43:33;;;;;;;6.82;3.13;;;4.10;94.80;;;;;;10140658;28;20028;-63
2021/11/28 17:48:25;;;;;;;3.00;2.38;;;4.20;94.70;;;;;;10131469;28;20031;-64
2021/11/28 17:53:16;;;;;;;5.35;2.70;;;4.10;94.70;;;;;;10140478;28;20094;-63
2021/11/28 17:58:07;;;;;;;5.88;3.20;;;4.00;94.80;;;;;;10130664;28;20045;-64
2021/11/28 18:02:58;;;;;;;4.53;2.92;;;4.00;94.90;;;;;;10133334;28;20017;-63
2021/11/28 18:07:49;;;;;;;5.25;3.15;;;3.90;94.80;;;;;;10137910;28;20539;-63
2021/11/28 18:12:39;;;;;;;5.97;2.38;;;3.90;94.90;;;;;;10140034;28;20081;-62
2021/11/28 18:17:31;;;;;;;7.30;3.72;;;4.00;95.00;;;;;;10135641;28;20402;-63
2021/11/28 18:22:22;;;;;;;8.82;4.45;;;4.00;94.80;;;;;;10141253;28;20170;-62
2021/11/28 18:27:12;;;;;;;6.78;3.50;;;4.00;94.90;;;;;;10138862;28;20122;-64
2021/11/28 18:32:04;;;;;;;5.28;3.78;;;4.00;95.00;;;;;;10133632;28;20028;-63
2021/11/28 18:36:55;;;;;;;5.82;3.35;;;3.90;95.00;;;;;;10134317;28;20360;-62
2021/11/28 18:41:46;;;;;;;7.28;3.30;;;3.90;95.10;;;;;;10133443;28;20089;-63
2021/11/28 18:46:37;;;;;;;6.50;3.15;;;3.80;95.20;;;;;;10132980;28;20035;-63
2021/11/28 18:51:28;;;;;;;7.45;3.47;;;3.80;95.30;;;;;;10142596;28;20111;-63
2021/11/28 18:56:18;;;;;;;5.47;2.72;;;3.80;95.30;;;;;;10132544;28;20299;-63
2021/11/28 19:01:09;;;;;;;6.43;2.72;;;3.80;95.20;;;;;;10125749;28;20079;-64
2021/11/28 19:06:01;;;;;;;6.15;3.90;;;3.80;95.30;;;;;;10137068;28;20028;-64
2021/11/28 19:10:57;;;;;;;4.97;3.03;;;3.80;95.20;;;;;;10112371;28;20020;-65
2021/11/28 19:15:48;;;;;;;5.18;3.00;;;3.70;95.50;;;;;;10124597;28;20191;-64
2021/11/28 19:20:38;;;;;;;4.97;2.83;;;3.90;95.40;;;;;;10138048;28;20352;-67
2021/11/28 19:25:30;;;;;;;6.18;2.83;;;3.90;95.40;;;;;;10109923;28;20163;-69
2021/11/28 19:30:21;;;;;;;7.50;3.95;;;3.80;95.30;;;;;;10115144;28;20021;-68
2021/11/28 19:35:12;;;;;;;6.60;2.65;;;3.80;95.40;;;;;;10117811;28;20522;-65
2021/11/28 19:40:08;;;;;;;5.72;2.92;;;3.80;95.60;;;;;;10122126;28;20074;-67
2021/11/28 19:44:58;;;;;;;5.93;2.92;;;3.80;95.50;;;;;;10102904;28;20112;-65
2021/11/28 19:49:49;;;;;;;4.20;2.72;;;3.80;95.60;;;;;;10106385;28;20112;-66
2021/11/28 19:54:40;;;;;;;6.45;3.17;;;3.90;95.60;;;;;;10105452;28;20052;-65
2021/11/28 19:59:31;;;;;;;5.65;3.42;;;3.80;95.60;;;;;;10115219;28;20506;-67
2021/11/28 20:04:21;;;;;;;7.13;3.67;;;3.80;95.80;;;;;;10115073;28;20035;-67
2021/11/28 20:09:12;;;;;;;6.03;3.25;;;3.80;96.00;;;;;;10112939;28;20027;-63
2021/11/28 20:14:05;;;;;;;5.15;2.45;;;3.80;95.90;;;;;;10108605;28;20044;-65
2021/11/28 20:18:56;;;;;;;6.38;4.15;;;4.00;95.90;;;;;;10121126;28;20064;-65
2021/11/28 20:23:48;;;;;;;5.32;2.90;;;4.00;95.60;;;;;;10105984;28;20025;-66
2021/11/28 20:28:38;;;;;;;8.57;3.67;;;3.90;95.60;;;;;;10100970;28;20028;-65
2021/11/28 20:33:29;;;;;;;8.60;4.00;;;3.80;95.70;;;;;;10124311;28;20037;-67
2021/11/28 20:38:20;;;;;;;9.70;3.88;;;3.90;95.80;;;;;;10120190;28;20529;-65
2021/11/28 20:43:12;;;;;;;7.10;3.35;;;3.90;95.70;;;;;;10115192;28;20016;-67
2021/11/28 20:48:04;;;;;;;9.63;4.68;;;3.90;95.90;;;;;;10117241;28;20043;-67
2021/11/28 20:52:55;;;;;;;5.18;2.92;;;4.00;95.90;;;;;;10134478;28;20035;-64
2021/11/28 20:57:46;;;;;;;5.93;3.63;;;3.90;95.80;;;;;;10128448;28;20198;-64
2021/11/28 21:02:37;;;;;;;9.98;5.05;;;3.90;95.90;;;;;;10129788;28;20055;-64
2021/11/28 21:07:33;;;;;;;7.05;3.75;;;3.90;95.90;;;;;;10129089;28;20495;-66
2021/11/28 21:12:23;;;;;;;7.25;3.38;;;3.90;96.00;;;;;;10128034;28;20482;-63
2021/11/28 21:17:15;;;;;;;9.40;4.05;;;3.90;96.00;;;;;;10125496;28;20100;-66
2021/11/28 21:22:06;;;;;;;8.77;4.45;;;3.90;96.00;;;;;;10125531;28;20029;-64
2021/11/28 21:26:57;;;;;;;9.02;4.63;;;3.90;96.00;;;;;;10125153;28;20033;-63
2021/11/28 21:31:48;;;;;;;7.07;3.13;;;4.00;95.90;;;;;;10128908;28;20013;-62
2021/11/28 21:36:40;;;;;;;11.52;6.10;;;4.00;96.00;;;;;;10121137;28;20059;-64
2021/11/28 21:41:31;;;;;;;7.47;4.70;;;4.00;95.90;;;;;;10123705;28;20039;-64
2021/11/28 21:46:21;;;;;;;9.73;4.68;;;4.00;96.00;;;;;;10123806;28;20541;-63
2021/11/28 21:51:12;;;;;;;7.93;4.18;;;4.00;96.00;;;;;;10128200;28;20506;-63
2021/11/28 21:56:05;;;;;;;11.27;5.18;;;4.10;96.10;;;;;;10125668;28;20410;-63
2021/11/28 22:00:56;;;;;;;9.18;5.13;;;4.10;96.00;;;;;;10128041;28;20020;-62
2021/11/28 22:05:47;;;;;;;11.13;4.72;;;4.00;96.10;;;;;;10116383;28;20039;-62
2021/11/28 22:10:39;;;;;;;9.98;4.95;;;4.00;96.20;;;;;;10120508;28;20051;-61
2021/11/28 22:15:30;;;;;;;10.13;4.47;;;3.90;96.10;;;;;;10123776;28;20085;-62
2021/11/28 22:20:20;;;;;;;8.88;4.18;;;3.90;96.20;;;;;;10115043;28;20476;-62
2021/11/28 22:25:13;;;;;;;9.57;4.88;;;3.90;96.10;;;;;;10127447;28;20025;-62
2021/11/28 22:30:05;;;;;;;9.77;4.93;;;3.90;96.10;;;;;;10129394;28;20063;-62
2021/11/28 22:34:56;;;;;;;11.80;5.90;;;3.90;96.10;;;;;;10125504;28;20140;-67
2021/11/28 22:39:47;;;;;;;9.05;4.78;;;3.90;96.40;;;;;;10113328;28;20448;-66
2021/11/28 22:44:39;;;;;;;9.73;4.70;;;3.90;96.20;;;;;;10123543;28;20171;-67
2021/11/28 22:49:30;;;;;;;11.38;4.50;;;3.90;96.20;;;;;;10121310;28;20028;-67
2021/11/28 22:54:20;;;;;;;10.60;4.97;;;3.90;96.20;;;;;;10121976;28;20118;-66
2021/11/28 22:59:11;;;;;;;10.48;4.18;;;3.90;96.10;;;;;;10122317;28;20079;-67
2021/11/28 23:04:14;;;;;;;10.57;5.10;;;3.80;96.20;;;;;;10120562;28;20048;-67
2021/11/28 23:09:07;;;;;;;8.70;4.72;;;3.90;96.10;;;;;;10106321;28;20029;-67
2021/11/28 23:14:00;;;;;;;9.20;5.05;;;3.90;96.10;;;;;;10115709;28;20504;-67
2021/11/28 23:18:52;;;;;;;10.82;6.43;;;3.90;96.00;;;;;;10127431;28;20031;-68
2021/11/28 23:23:43;;;;;;;12.48;4.72;;;3.90;96.00;;;;;;10122481;28;20052;-66
2021/11/28 23:28:36;;;;;;;9.90;4.80;;;3.90;96.10;;;;;;10119757;28;20063;-67
2021/11/28 23:33:27;;;;;;;10.93;4.90;;;3.90;96.00;;;;;;10119907;28;20091;-67
2021/11/28 23:38:18;;;;;;;7.10;4.10;;;3.80;96.00;;;;;;10112715;28;20120;-67
2021/11/28 23:43:10;;;;;;;8.13;4.15;;;3.80;96.00;;;;;;10119404;28;20573;-66
2021/11/28 23:48:00;;;;;;;8.02;4.15;;;3.90;96.00;;;;;;10128425;28;20062;-67
2021/11/28 23:52:51;;;;;;;11.07;4.78;;;3.80;96.00;;;;;;10122868;28;20107;-67
2021/11/28 23:57:42;;;;;;;11.48;4.15;;;3.80;95.90;;;;;;10117550;28;20040;-67
